This is the latest recevied weather packets stored in our database for station/object F1ZFG-13. If no packets are shown the sender has not sent any weather packets the latest 10 day(s).
| Time | Temp. | Humidity | Pressure | Rain* | Wind** | Luminosity | Snow |
|---|---|---|---|---|---|---|---|
| 1787607217 | 18.33° C | 95% | 1011.3 hPa | 0 mm | - | - | - |
| 1787604277 | 17.78° C | 90% | 1012.6 hPa | 0.25 mm | - | - | - |
| 1787601085 | 21.11° C | 64% | 1009.9 hPa | 0.25 mm | - | - | - |
| 1787597506 | 26.11° C | 41% | 1008.4 hPa | 0.25 mm | - | - | - |
| 1787594506 | 26.11° C | 41% | 1008.4 hPa | 0.25 mm | - | - | - |
| 1787591243 | 26.67° C | 42% | 1008.2 hPa | 0 mm | - | - | - |
| 1787587765 | 28.33° C | 34% | 1009.4 hPa | 0 mm | - | - | - |
| 1787584249 | 30.56° C | 27% | 1009.8 hPa | 0 mm | - | - | - |
| 1787580919 | 30.56° C | 25% | 1010.3 hPa | 0 mm | - | - | - |
| 1787577501 | 30.56° C | 27% | 1011.7 hPa | 0 mm | - | - | - |
| 1787574276 | 30° C | 31% | 1011.7 hPa | 0 mm | - | - | - |
| 1787571347 | 28.89° C | 35% | 1013 hPa | 0 mm | - | - | - |
| 1787567769 | 26.67° C | 38% | 1014.1 hPa | 0 mm | - | - | - |
| 1787564797 | 24.44° C | 41% | 1014.9 hPa | 0 mm | - | - | - |
| 1787561531 | 22.22° C | 44% | 1015.3 hPa | 0 mm | - | - | - |
| 1787558414 | 22.22° C | 44% | 1015.3 hPa | 0 mm | - | - | - |
| 1787555547 | 20° C | 50% | 1015.4 hPa | 0 mm | - | - | - |
| 1787552176 | 17.78° C | 58% | 1015.5 hPa | 0 mm | - | - | - |
| 1787549092 | 16.67° C | 62% | 1015.5 hPa | 0 mm | - | - | - |
| 1787545688 | 17.22° C | 57% | 1015.6 hPa | 0 mm | - | - | - |
| 1787542280 | 17.78° C | 54% | 1015.9 hPa | 0 mm | - | - | - |
| 1787539117 | 18.89° C | 49% | 1016.1 hPa | 0 mm | - | - | - |
| 1787536148 | -17.78° C | 100% | 0 hPa | 0 mm | - | - | - |
| 1787536055 | -17.78° C | 100% | 0 hPa | 0 mm | - | - | - |
| 1787535064 | 19.44° C | 44% | 1016.7 hPa | 0 mm | - | - | - |
* Rain latest hour (hover to see other rain measurements)
** Current wind speed in m/s (hover to see current wind gust speed)